Startpagina
METAR-TAF:

METAR-TAF

Vliegvelden :

Flughafen Dortmund

Dortmund, Duitsland

breedte: 51-31N, lengte: 007-37E, hoogte: 127 m

Actueel weer

Dit bericht is 24 minuten geleden gemaakt, om 05:50 UTC
Wind 7 kt uit het zuiden
Temperatuur 16°C
Vochtigheid 88%
Druk 1017 hPa
Zicht 10 km of meer
geen wolken onder 1500 m en geen cumulonimbus

METAR: EDLW 160550Z 17007KT CAVOK 16/14 Q1017

Tijdstip: 08:14 (06:14 UTC)

Verwachting

Dit bericht is 1 uur en het 14 minuten geleden gemaakt, om 05:00 UTC
Verwachting geldig van 16 om 06 UTC tot 17 om 06 UTC
Wind 8 kt uit het zuidzuidwesten
Zicht 10 km of meer
geen wolken onder 1500 m en geen cumulonimbus
Wijzigt naar
van 16 om 17 UTC tot 16 om 19 UTC
Wind 3 kt uit variabele richting

TAF: EDLW 160500Z 1606/1706 21008KT CAVOK BECMG 1617/1619 VRB03KT

Waarnemingen en weersverwachtingen van meer dan 4000 vliegvelden (METAR en TAF).

De beschikbare stations zijn de gele en rode punten op de kaart.

Ga met uw muis naar het station om de naam te zien.

Klik dan om waarnemingen en weersverwachtingen te zien.

kaart wijzigen: klik op de groene knoppen met een zwart kruis om in te zoomen, op de groene knop met een streepje om uit te zoomen of op de groene pijlen voor aangrenzende kaarten.


METAR-TAF: